createdAt,value
2019-05-23T00:02:39.420Z,5
2019-05-23T00:07:44.155Z,4.5
2019-05-23T00:12:49.096Z,5.1
2019-05-23T00:17:54.332Z,5.1
2019-05-23T00:22:59.361Z,3.6
2019-05-23T00:28:04.276Z,3.6
2019-05-23T00:33:09.143Z,3.4
2019-05-23T00:38:14.001Z,3.6
2019-05-23T00:43:17.416Z,3.8
2019-05-23T00:48:22.865Z,3.7
2019-05-23T00:53:28.301Z,3.5
2019-05-23T00:58:33.348Z,3.1
2019-05-23T01:03:38.546Z,3.2
2019-05-23T01:08:43.945Z,4
2019-05-23T01:13:49.039Z,4.8
2019-05-23T01:18:52.515Z,3.8
2019-05-23T01:23:57.474Z,3.3
2019-05-23T01:29:02.280Z,4.2
2019-05-23T01:34:07.256Z,3.6
2019-05-23T01:39:12.591Z,4.1
2019-05-23T01:44:18.176Z,3.6
2019-05-23T01:49:24.087Z,3.6
2019-05-23T01:54:29.422Z,3.4
2019-05-23T01:59:34.255Z,3.5
2019-05-23T02:04:37.968Z,3.3
2019-05-23T02:09:43.074Z,4
2019-05-23T02:14:48.111Z,4.9
2019-05-23T02:19:51.793Z,3.5
2019-05-23T02:24:56.720Z,3.7
2019-05-23T02:30:02.069Z,4.5
2019-05-23T02:35:07.316Z,4.5
2019-05-23T02:40:12.267Z,4.2
2019-05-23T02:45:17.244Z,3.7
2019-05-23T02:50:22.149Z,5.5
2019-05-23T02:55:27.597Z,3.3
2019-05-23T03:00:30.977Z,3.7
2019-05-23T03:05:38.355Z,4.3
2019-05-23T03:10:43.156Z,3.2
2019-05-23T03:15:48.491Z,3.2
2019-05-23T03:20:53.318Z,3.6
2019-05-23T03:25:58.427Z,3.7
2019-05-23T03:31:26.274Z,6.4
2019-05-23T03:36:07.222Z,3.7
2019-05-23T03:41:12.294Z,4.2
2019-05-23T03:46:17.226Z,3.6
2019-05-23T03:51:22.198Z,3.4
2019-05-23T03:56:27.782Z,4.2
2019-05-23T04:01:46.553Z,4.3
2019-05-23T04:06:33.721Z,3
2019-05-23T04:11:38.623Z,3.1
2019-05-23T04:16:43.557Z,3.3
2019-05-23T04:21:48.271Z,3
2019-05-23T04:26:53.198Z,3.2
2019-05-23T04:32:07.553Z,3.2
2019-05-23T04:37:04.009Z,2.5
2019-05-23T04:42:08.798Z,2.7
2019-05-23T04:47:13.783Z,3.1
2019-05-23T04:52:18.842Z,3
2019-05-23T04:57:24.357Z,2.9
2019-05-23T05:02:29.343Z,2.2
2019-05-23T05:07:34.157Z,2.9
2019-05-23T05:12:37.579Z,2.6
2019-05-23T05:17:42.600Z,2.8
2019-05-23T05:22:45.915Z,2.1
2019-05-23T05:27:51.113Z,3.3
2019-05-23T05:32:56.085Z,7.6
2019-05-23T05:37:59.511Z,2.2
2019-05-23T05:43:04.500Z,5.2
2019-05-23T05:48:10.132Z,3.9
2019-05-23T05:53:15.036Z,3.5
2019-05-23T05:58:20.074Z,3.6
2019-05-23T06:03:24.888Z,2.2
2019-05-23T06:08:29.831Z,3.7
2019-05-23T06:13:35.025Z,2.3
2019-05-23T06:18:39.865Z,3.3
2019-05-23T06:23:44.682Z,3.2
2019-05-23T06:28:49.705Z,2.8
2019-05-23T06:33:54.622Z,2.6
2019-05-23T06:38:59.633Z,2.2
2019-05-23T06:44:04.416Z,3.1
2019-05-23T06:49:09.396Z,2.6
2019-05-23T06:54:14.292Z,2.8
2019-05-23T06:59:19.295Z,2.5
2019-05-23T07:04:24.056Z,3.2
2019-05-23T07:09:29.084Z,2.6
2019-05-23T07:14:34.038Z,8.1
2019-05-23T07:19:38.965Z,4.5
2019-05-23T07:24:57.270Z,2.5
2019-05-23T07:29:53.613Z,5.4
2019-05-23T07:34:58.460Z,2.7
2019-05-23T07:40:06.193Z,3.5
2019-05-23T07:45:11.300Z,3.2
2019-05-23T07:50:19.196Z,5.5
2019-05-23T07:55:24.071Z,4.2
2019-05-23T08:00:29.034Z,5.1
2019-05-23T08:05:34.176Z,7.8
2019-05-23T08:10:37.621Z,7.4
2019-05-23T08:15:42.399Z,3.2
2019-05-23T08:20:47.403Z,2.5
2019-05-23T08:25:52.227Z,3.4
2019-05-23T08:30:57.263Z,3.5
2019-05-23T08:36:03.544Z,4.3
2019-05-23T08:41:08.967Z,2.6
2019-05-23T08:46:14.181Z,4.5
2019-05-23T08:51:19.122Z,4.3
2019-05-23T08:56:24.216Z,3.6
2019-05-23T09:01:29.108Z,4.3
2019-05-23T09:06:34.024Z,18.9
2019-05-23T09:11:39.212Z,3.9
2019-05-23T09:16:44.181Z,3.8
2019-05-23T09:21:49.238Z,7.8
2019-05-23T09:26:51.710Z,4
2019-05-23T09:31:56.983Z,4
2019-05-23T09:37:00.894Z,4.9
2019-05-23T09:42:06.194Z,5
2019-05-23T09:47:15.319Z,4
2019-05-23T09:52:20.253Z,3
2019-05-23T09:57:25.042Z,6.4
2019-05-23T10:02:30.057Z,9.7
2019-05-23T10:07:34.804Z,3.3
2019-05-23T10:12:40.056Z,4.5
2019-05-23T10:17:43.455Z,2.8
2019-05-23T10:27:56.246Z,3.2
2019-05-23T10:33:01.302Z,3.7
2019-05-23T10:38:04.037Z,2.9
2019-05-23T10:43:09.259Z,3
2019-05-23T10:48:14.191Z,4.2
2019-05-23T10:53:19.154Z,10.6
2019-05-23T10:58:24.765Z,10.5
2019-05-23T11:03:29.603Z,5
2019-05-23T11:08:34.392Z,4.7
2019-05-23T11:13:39.321Z,4.8
2019-05-23T11:18:44.341Z,5.2
2019-05-23T11:28:51.519Z,7.4
2019-05-23T11:33:56.601Z,4.8
2019-05-23T11:39:01.480Z,6.6
2019-05-23T11:44:04.963Z,10.1
2019-05-23T11:49:09.869Z,7.4
2019-05-23T11:54:15.371Z,6.8
2019-05-23T11:59:20.362Z,10.6
2019-05-23T12:04:25.151Z,6.2
2019-05-23T12:09:29.862Z,5.8
2019-05-23T12:14:36.319Z,15.3
2019-05-23T12:19:41.309Z,10.1
2019-05-23T12:24:46.938Z,9.5
2019-05-23T12:29:51.962Z,3.9
2019-05-23T12:35:10.035Z,4.8
2019-05-23T12:40:06.810Z,6.7
2019-05-23T12:45:11.966Z,6.6
2019-05-23T12:50:16.964Z,7.2
2019-05-23T12:55:21.923Z,7.6
2019-05-23T13:00:26.885Z,5.7
2019-05-23T13:05:32.480Z,6
2019-05-23T13:10:37.239Z,6.5
2019-05-23T13:15:42.716Z,6.1
2019-05-23T13:21:26.342Z,7.4
2019-05-23T13:26:29.662Z,6.2
2019-05-23T13:31:33.267Z,6.6
2019-05-23T13:36:38.566Z,4.5
2019-05-23T13:41:42.106Z,5.8
2019-05-23T13:46:47.024Z,8.3
2019-05-23T13:51:51.837Z,9.5
2019-05-23T13:56:55.444Z,8
2019-05-23T14:02:00.700Z,4.4
2019-05-23T14:07:05.675Z,5.5
2019-05-23T14:12:24.456Z,4.8
2019-05-23T14:17:09.721Z,5.6
2019-05-23T14:22:13.037Z,5.3
2019-05-23T14:27:20.008Z,4.6
2019-05-23T14:32:25.122Z,8.1
2019-05-23T14:37:30.421Z,6.9
2019-05-23T14:42:35.702Z,4
2019-05-23T14:47:41.076Z,4
2019-05-23T14:52:46.377Z,5.1
2019-05-23T14:57:51.293Z,5.4
2019-05-23T15:02:56.228Z,10.7
2019-05-23T15:08:02.947Z,8.7
2019-05-23T15:13:07.831Z,4.2
2019-05-23T15:18:12.876Z,5.2
2019-05-23T15:23:16.164Z,4.1
2019-05-23T15:28:21.454Z,3.5
2019-05-23T15:33:26.268Z,6.4
2019-05-23T15:38:31.788Z,5.2
2019-05-23T15:43:36.617Z,6.7
2019-05-23T15:48:41.521Z,9.1
2019-05-23T15:53:46.347Z,5.7
2019-05-23T15:58:50.315Z,6
2019-05-23T16:03:55.695Z,5.9
2019-05-23T16:09:00.596Z,8.7
2019-05-23T16:14:05.538Z,6.3
2019-05-23T16:19:10.561Z,8.4
2019-05-23T16:24:15.755Z,13.4
2019-05-23T16:29:20.647Z,4.5
2019-05-23T16:34:25.670Z,6.8
2019-05-23T16:39:45.747Z,6.7
2019-05-23T16:44:34.662Z,9
2019-05-23T16:49:42.101Z,4.3
2019-05-23T16:54:48.624Z,4.6
2019-05-23T16:59:53.505Z,8.2
2019-05-23T17:05:08.929Z,6.6
2019-05-23T17:10:08.007Z,4.1
2019-05-23T17:15:04.520Z,3.5
2019-05-23T17:20:18.905Z,6.3
2019-05-23T17:25:15.148Z,3.9
2019-05-23T17:30:20.197Z,5.6
2019-05-23T17:35:23.552Z,3.5
2019-05-23T17:40:28.648Z,5.4
2019-05-23T17:45:33.756Z,4.4
2019-05-23T17:50:37.192Z,6.2
2019-05-23T17:55:40.643Z,4.3
2019-05-23T18:00:45.544Z,4.7
2019-05-23T18:05:50.596Z,6.6
2019-05-23T18:10:55.731Z,4
2019-05-23T18:16:00.781Z,5.5
2019-05-23T18:21:05.650Z,5.5
2019-05-23T18:26:13.226Z,5.3
2019-05-23T18:31:18.167Z,5.6
2019-05-23T18:36:23.267Z,5.1
2019-05-23T18:41:28.861Z,4.3
2019-05-23T18:46:32.810Z,4.9
2019-05-23T18:51:42.168Z,4.8
2019-05-23T18:56:49.233Z,6.2
2019-05-23T19:01:54.309Z,5.7
2019-05-23T19:06:59.414Z,5
2019-05-23T19:12:04.471Z,5.9
2019-05-23T19:17:09.370Z,5.5
2019-05-23T19:22:14.443Z,6.1
2019-05-23T19:27:17.820Z,5.7
2019-05-23T19:32:22.723Z,6
2019-05-23T19:37:26.417Z,6.6
2019-05-23T19:42:31.924Z,6.5
2019-05-23T19:47:39.376Z,9.3
2019-05-23T19:52:44.931Z,7.4
2019-05-23T19:57:49.709Z,7.5
2019-05-23T20:02:54.778Z,7.8
2019-05-23T20:07:59.721Z,10.1
2019-05-23T20:13:05.306Z,9.4
2019-05-23T20:18:10.258Z,8.9
2019-05-23T20:23:15.770Z,9.2
2019-05-23T20:28:21.083Z,10.1
2019-05-23T20:33:26.230Z,9
2019-05-23T20:38:31.179Z,8.5
2019-05-23T20:43:36.514Z,9.5
2019-05-23T20:48:41.532Z,7.6
2019-05-23T20:53:45.301Z,7.7
2019-05-23T20:58:48.820Z,8
2019-05-23T21:03:54.353Z,8.9
2019-05-23T21:08:59.265Z,9.1
2019-05-23T21:14:04.498Z,9.1
2019-05-23T21:19:10.757Z,8.3
2019-05-23T21:24:15.809Z,9.4
2019-05-23T21:29:20.780Z,9.9
2019-05-23T21:34:25.693Z,8.5
2019-05-23T21:39:30.537Z,9.3
2019-05-23T21:44:35.984Z,8.3
2019-05-23T21:49:39.677Z,10.1
2019-05-23T21:54:44.651Z,12
2019-05-23T21:59:49.537Z,8.6
2019-05-23T22:04:54.546Z,10.8
2019-05-23T22:09:59.356Z,9.5
2019-05-23T22:15:03.718Z,10
2019-05-23T22:20:08.550Z,8.9
2019-05-23T22:25:13.889Z,8.2
2019-05-23T22:30:17.347Z,9
2019-05-23T22:35:22.643Z,9.2
2019-05-23T22:40:27.599Z,8.3
2019-05-23T22:45:31.559Z,10
2019-05-23T22:50:36.419Z,9.2
2019-05-23T22:55:41.615Z,9.4
2019-05-23T23:00:46.818Z,9.2
2019-05-23T23:05:50.566Z,8.3
2019-05-23T23:10:55.664Z,8.6
2019-05-23T23:16:00.630Z,9
2019-05-23T23:21:05.788Z,10.8
2019-05-23T23:26:10.818Z,10.6
2019-05-23T23:31:15.583Z,9.8
2019-05-23T23:36:20.850Z,9
2019-05-23T23:41:24.400Z,9.4
2019-05-23T23:46:29.872Z,9.5
2019-05-23T23:51:35.041Z,9.3
2019-05-23T23:56:39.939Z,9.6
